createdAt,value
2018-06-01T00:01:02.567Z,14.73
2018-06-01T00:03:30.128Z,11.83
2018-06-01T00:05:57.651Z,10.53
2018-06-01T00:08:25.195Z,11.37
2018-06-01T00:10:52.735Z,9.60
2018-06-01T00:13:20.367Z,12.97
2018-06-01T00:15:47.930Z,9.33
2018-06-01T00:18:15.484Z,9.93
2018-06-01T00:20:43.012Z,14.47
2018-06-01T00:23:10.614Z,10.13
2018-06-01T00:25:38.150Z,12.40
2018-06-01T00:28:05.727Z,10.97
2018-06-01T00:30:33.287Z,9.73
2018-06-01T00:33:00.815Z,11.20
2018-06-01T00:35:28.407Z,12.23
2018-06-01T00:37:55.937Z,10.87
2018-06-01T00:40:23.528Z,12.23
2018-06-01T00:42:51.043Z,13.83
2018-06-01T00:45:18.613Z,9.17
2018-06-01T00:47:46.213Z,9.43
2018-06-01T00:50:13.870Z,11.67
2018-06-01T00:52:41.428Z,13.13
2018-06-01T00:55:20.760Z,12.27
2018-06-01T00:57:48.311Z,11.93
2018-06-01T01:00:15.866Z,9.00
2018-06-01T01:02:43.445Z,11.67
2018-06-01T01:05:11.005Z,10.43
2018-06-01T01:07:38.532Z,14.33
2018-06-01T01:10:06.048Z,9.63
2018-06-01T01:12:33.583Z,15.67
2018-06-01T01:15:01.109Z,10.63
2018-06-01T01:17:28.697Z,10.77
2018-06-01T01:19:56.227Z,13.43
2018-06-01T01:22:23.788Z,10.93
2018-06-01T01:24:51.367Z,11.07
2018-06-01T01:27:18.927Z,11.60
2018-06-01T01:29:46.460Z,10.57
2018-06-01T01:32:14.058Z,10.20
2018-06-01T01:34:41.609Z,10.13
2018-06-01T01:37:09.119Z,9.80
2018-06-01T01:39:36.677Z,14.70
2018-06-01T01:42:04.232Z,11.30
2018-06-01T01:44:31.755Z,14.87
2018-06-01T01:46:59.282Z,13.77
2018-06-01T01:49:26.852Z,10.37
2018-06-01T01:51:54.373Z,12.50
2018-06-01T01:54:21.904Z,10.50
2018-06-01T01:56:49.441Z,9.87
2018-06-01T01:59:16.986Z,10.67
2018-06-01T02:01:44.571Z,10.37
2018-06-01T02:04:12.136Z,11.20
2018-06-01T02:06:39.665Z,14.90
2018-06-01T02:09:07.189Z,11.70
2018-06-01T02:11:34.822Z,10.07
2018-06-01T02:14:02.391Z,10.67
2018-06-01T02:16:29.922Z,12.47
2018-06-01T02:18:57.499Z,10.87
2018-06-01T02:21:25.056Z,11.63
2018-06-01T02:23:52.584Z,11.53
2018-06-01T02:26:20.112Z,8.80
2018-06-01T02:28:47.737Z,15.40
2018-06-01T02:31:15.264Z,11.43
2018-06-01T02:33:42.784Z,12.70
2018-06-01T02:36:10.319Z,11.80
2018-06-01T02:38:37.862Z,12.43
2018-06-01T02:41:05.401Z,11.37
2018-06-01T02:43:32.925Z,13.03
2018-06-01T02:46:00.452Z,9.63
2018-06-01T02:48:27.975Z,14.67
2018-06-01T02:50:55.573Z,11.60
2018-06-01T02:53:23.101Z,10.40
2018-06-01T02:55:50.620Z,11.60
2018-06-01T02:58:18.182Z,10.83
2018-06-01T03:00:45.708Z,9.37
2018-06-01T03:03:13.232Z,9.73
2018-06-01T03:05:40.832Z,10.47
2018-06-01T03:08:08.352Z,13.63
2018-06-01T03:10:35.881Z,12.57
2018-06-01T03:13:03.408Z,12.63
2018-06-01T03:15:30.932Z,9.90
2018-06-01T03:17:58.526Z,7.80
2018-06-01T03:20:26.052Z,11.60
2018-06-01T03:22:53.581Z,12.10
2018-06-01T03:25:21.191Z,9.13
2018-06-01T03:27:48.724Z,13.57
2018-06-01T03:30:16.295Z,14.90
2018-06-01T03:32:43.884Z,12.60
2018-06-01T03:35:11.412Z,10.50
2018-06-01T03:37:38.995Z,9.53
2018-06-01T03:40:06.531Z,15.83
2018-06-01T03:42:34.125Z,16.63
2018-06-01T03:45:01.685Z,11.57
2018-06-01T03:47:29.212Z,14.57
2018-06-01T03:49:56.804Z,11.63
2018-06-01T03:52:24.368Z,11.03
2018-06-01T03:54:51.911Z,13.47
2018-06-01T03:57:19.452Z,13.40
2018-06-01T03:59:46.968Z,10.50
2018-06-01T04:02:14.606Z,11.10
2018-06-01T04:04:42.136Z,12.93
2018-06-01T04:07:09.726Z,13.90
2018-06-01T04:09:37.291Z,9.93
2018-06-01T04:12:04.947Z,11.27
2018-06-01T04:14:32.642Z,14.57
2018-06-01T04:17:01.193Z,12.97
2018-06-01T04:19:28.724Z,15.67
2018-06-01T04:21:56.244Z,11.63
2018-06-01T04:24:23.865Z,11.90
2018-06-01T04:26:51.417Z,13.03
2018-06-01T04:29:18.949Z,12.23
2018-06-01T04:31:46.479Z,13.80
2018-06-01T04:34:14.011Z,12.33
2018-06-01T04:36:41.536Z,18.40
2018-06-01T04:39:09.084Z,12.70
2018-06-01T04:41:36.685Z,14.90
2018-06-01T04:44:04.251Z,12.43
2018-06-01T04:46:31.805Z,17.43
2018-06-01T04:48:59.337Z,12.17
2018-06-01T04:51:26.864Z,13.53
2018-06-01T04:53:54.396Z,19.57
2018-06-01T04:56:21.924Z,12.83
2018-06-01T04:58:49.511Z,16.63
2018-06-01T05:01:17.060Z,14.27
2018-06-01T05:03:44.617Z,14.23
2018-06-01T05:06:12.144Z,17.13
2018-06-01T05:08:39.712Z,17.17
2018-06-01T05:11:07.231Z,13.00
2018-06-01T05:13:34.868Z,16.03
2018-06-01T05:16:02.429Z,17.50
2018-06-01T05:18:29.955Z,14.93
2018-06-01T05:20:57.476Z,13.10
2018-06-01T05:23:25.107Z,13.93
2018-06-01T05:25:52.671Z,13.70
2018-06-01T05:28:20.228Z,13.00
2018-06-01T05:30:47.752Z,17.03
2018-06-01T05:33:15.288Z,16.57
2018-06-01T05:35:42.828Z,12.70
2018-06-01T05:38:10.466Z,16.90
2018-06-01T05:40:38.000Z,13.50
2018-06-01T05:43:05.588Z,15.50
2018-06-01T05:45:33.147Z,12.40
2018-06-01T05:48:00.707Z,13.47
2018-06-01T05:50:28.236Z,14.67
2018-06-01T05:52:55.765Z,15.43
2018-06-01T05:55:23.386Z,17.30
2018-06-01T05:57:50.941Z,13.67
2018-06-01T06:00:18.501Z,13.70
2018-06-01T06:02:46.070Z,15.93
2018-06-01T06:05:13.627Z,12.80
2018-06-01T06:07:41.188Z,13.47
2018-06-01T06:10:08.749Z,19.43
2018-06-01T06:12:36.411Z,16.77
2018-06-01T06:15:03.937Z,12.93
2018-06-01T06:17:31.534Z,13.87
2018-06-01T06:19:59.204Z,14.83
2018-06-01T06:22:26.870Z,15.17
2018-06-01T06:24:54.415Z,13.27
2018-06-01T06:27:21.939Z,14.67
2018-06-01T06:29:49.533Z,14.53
2018-06-01T06:32:17.065Z,16.87
2018-06-01T06:34:44.658Z,17.70
2018-06-01T06:37:12.314Z,16.07
2018-06-01T06:39:39.877Z,14.60
2018-06-01T06:42:07.407Z,13.90
2018-06-01T06:44:34.992Z,14.90
2018-06-01T06:47:02.525Z,16.50
2018-06-01T06:49:30.116Z,25.63
2018-06-01T06:51:57.644Z,11.37
2018-06-01T06:54:25.168Z,14.93
2018-06-01T06:56:52.704Z,12.77
2018-06-01T06:59:20.236Z,14.13
2018-06-01T07:01:47.783Z,13.68
2018-06-01T07:04:15.368Z,11.93
2018-06-01T07:06:42.934Z,11.98
2018-06-01T07:09:10.459Z,11.27
2018-06-01T07:11:38.048Z,12.37
2018-06-01T07:14:05.577Z,13.43
2018-06-01T07:16:33.113Z,10.95
2018-06-01T07:19:00.738Z,10.90
2018-06-01T07:21:28.268Z,14.55
2018-06-01T07:23:55.852Z,13.57
2018-06-01T07:26:23.411Z,12.13
2018-06-01T07:28:50.956Z,15.65
2018-06-01T07:31:18.479Z,12.30
2018-06-01T07:33:46.024Z,14.93
2018-06-01T07:36:13.553Z,9.82
2018-06-01T07:38:41.089Z,15.30
2018-06-01T07:41:08.623Z,11.60
2018-06-01T07:43:36.227Z,14.10
2018-06-01T07:46:03.758Z,14.48
2018-06-01T07:48:31.349Z,13.32
2018-06-01T07:50:58.907Z,10.63
2018-06-01T07:53:26.468Z,10.60
2018-06-01T07:55:54.127Z,15.50
2018-06-01T07:58:21.656Z,13.43
2018-06-01T08:00:49.256Z,16.42
2018-06-01T08:03:16.779Z,10.95
2018-06-01T08:05:44.368Z,17.70
2018-06-01T08:08:11.902Z,11.60
2018-06-01T08:10:39.430Z,13.57
2018-06-01T08:13:07.049Z,12.15
2018-06-01T08:15:34.610Z,11.38
2018-06-01T08:18:02.141Z,12.50
2018-06-01T08:20:29.725Z,18.35
2018-06-01T08:22:57.287Z,12.90
2018-06-01T08:25:24.849Z,15.13
2018-06-01T08:27:52.377Z,15.95
2018-06-01T08:30:19.904Z,10.00
2018-06-01T08:32:47.493Z,15.68
2018-06-01T08:35:15.089Z,12.02
2018-06-01T08:37:42.636Z,12.10
2018-06-01T08:40:10.160Z,13.45
2018-06-01T08:42:37.703Z,10.23
2018-06-01T08:45:05.332Z,12.40
2018-06-01T08:47:32.856Z,11.90
2018-06-01T08:50:00.375Z,8.63
2018-06-01T08:52:28.012Z,11.70
2018-06-01T08:54:55.567Z,9.38
2018-06-01T08:57:23.101Z,8.90
2018-06-01T08:59:50.625Z,11.82
2018-06-01T09:02:18.248Z,11.75
2018-06-01T09:04:45.779Z,9.10
2018-06-01T09:07:13.368Z,10.93
2018-06-01T09:09:40.893Z,12.27
2018-06-01T09:12:08.489Z,10.18
2018-06-01T09:14:36.045Z,8.43
2018-06-01T09:17:03.609Z,10.40
2018-06-01T09:19:31.180Z,7.95
2018-06-01T09:21:58.727Z,6.60
2018-06-01T09:24:26.252Z,8.63
2018-06-01T09:26:53.773Z,7.45
2018-06-01T09:29:21.303Z,7.25
2018-06-01T09:31:48.847Z,10.32
2018-06-01T09:34:16.419Z,11.50
2018-06-01T09:36:43.951Z,12.35
2018-06-01T09:39:11.488Z,13.93
2018-06-01T09:41:39.042Z,10.93
2018-06-01T09:44:06.575Z,7.53
2018-06-01T09:46:34.225Z,9.73
2018-06-01T09:49:01.767Z,12.68
2018-06-01T09:51:29.301Z,5.87
2018-06-01T09:53:56.903Z,6.87
2018-06-01T09:56:24.461Z,7.45
2018-06-01T09:58:51.982Z,5.20
2018-06-01T10:01:25.158Z,5.07
2018-06-01T10:03:52.769Z,8.30
2018-06-01T10:06:20.288Z,6.93
2018-06-01T10:08:47.838Z,8.63
2018-06-01T10:11:15.452Z,7.57
2018-06-01T10:13:42.975Z,8.32
2018-06-01T10:16:10.492Z,7.30
2018-06-01T10:18:38.031Z,6.68
2018-06-01T10:21:05.594Z,6.75
2018-06-01T10:23:33.167Z,6.65
2018-06-01T10:26:00.693Z,5.87
2018-06-01T10:28:28.270Z,9.18
2018-06-01T10:30:55.829Z,5.68
2018-06-01T10:33:23.365Z,5.47
2018-06-01T10:35:50.893Z,5.15
2018-06-01T10:38:18.516Z,6.30
2018-06-01T10:40:46.077Z,3.83
2018-06-01T10:43:13.604Z,6.65
2018-06-01T10:45:41.192Z,6.03
2018-06-01T10:48:08.730Z,6.20
2018-06-01T10:50:36.261Z,6.82
2018-06-01T10:53:03.868Z,8.02
2018-06-01T10:55:31.428Z,7.03
2018-06-01T10:57:58.966Z,7.00
2018-06-01T11:00:26.512Z,9.77
2018-06-01T11:02:54.064Z,7.97
2018-06-01T11:05:21.598Z,5.18
2018-06-01T11:07:49.125Z,6.20
2018-06-01T11:10:16.690Z,7.80
2018-06-01T11:12:44.223Z,8.60
2018-06-01T11:15:11.803Z,8.48
2018-06-01T11:17:39.340Z,8.18
2018-06-01T11:20:06.927Z,7.00
2018-06-01T11:22:34.487Z,9.18
2018-06-01T11:25:02.018Z,8.43
2018-06-01T11:27:29.547Z,7.77
2018-06-01T11:29:57.170Z,5.20
2018-06-01T11:32:24.755Z,6.77
2018-06-01T11:34:52.267Z,6.30
2018-06-01T11:37:19.857Z,7.67
2018-06-01T11:39:47.375Z,6.37
2018-06-01T11:42:14.897Z,8.07
2018-06-01T11:44:42.681Z,8.03
2018-06-01T11:47:10.312Z,6.23
2018-06-01T11:49:38.040Z,5.80
2018-06-01T11:52:05.710Z,8.97
2018-06-01T11:54:33.531Z,11.53
2018-06-01T11:57:01.372Z,9.70
2018-06-01T11:59:29.420Z,6.20
2018-06-01T12:01:56.991Z,8.60
2018-06-01T12:04:24.503Z,6.20
2018-06-01T12:06:52.023Z,8.73
2018-06-01T12:09:19.556Z,6.53
2018-06-01T12:11:47.070Z,7.30
2018-06-01T12:14:14.616Z,6.33
2018-06-01T12:16:42.140Z,7.40
2018-06-01T12:19:09.672Z,8.53
2018-06-01T12:21:37.188Z,8.30
2018-06-01T12:24:04.710Z,8.23
2018-06-01T12:26:32.242Z,6.20
2018-06-01T12:28:59.845Z,10.87
2018-06-01T12:31:27.496Z,5.83
2018-06-01T12:33:55.053Z,5.67
2018-06-01T12:36:22.590Z,6.87
2018-06-01T12:38:50.118Z,7.10
2018-06-01T12:41:17.734Z,8.90
2018-06-01T12:43:45.260Z,8.97
2018-06-01T12:46:12.931Z,11.87
2018-06-01T12:48:40.514Z,7.37
2018-06-01T12:51:08.045Z,11.30
2018-06-01T12:53:35.580Z,10.07
2018-06-01T12:56:03.194Z,12.13
2018-06-01T12:58:30.726Z,6.37
2018-06-01T13:00:58.256Z,9.43
2018-06-01T13:03:25.849Z,8.97
2018-06-01T13:05:53.368Z,6.37
2018-06-01T13:08:20.904Z,6.47
2018-06-01T13:10:48.432Z,9.00
2018-06-01T13:13:15.952Z,7.90
2018-06-01T13:15:43.781Z,6.60
2018-06-01T13:18:11.337Z,11.63
2018-06-01T13:20:38.983Z,8.73
2018-06-01T13:23:06.462Z,9.23
2018-06-01T13:25:33.985Z,7.07
2018-06-01T13:28:01.504Z,7.60
2018-06-01T13:30:29.034Z,8.00
2018-06-01T13:32:56.593Z,8.43
2018-06-01T13:35:24.231Z,8.53
2018-06-01T13:37:51.823Z,9.70
2018-06-01T13:40:19.346Z,10.17
2018-06-01T13:42:46.981Z,10.70
2018-06-01T13:45:14.596Z,6.23
2018-06-01T13:47:42.162Z,6.53
2018-06-01T13:50:09.799Z,7.87
2018-06-01T13:52:37.340Z,8.97
2018-06-01T13:55:05.072Z,6.07
2018-06-01T13:57:32.633Z,6.87
2018-06-01T14:00:00.268Z,8.43
2018-06-01T14:02:27.937Z,10.13
2018-06-01T14:04:55.458Z,10.20
2018-06-01T14:07:23.044Z,9.23
2018-06-01T14:09:50.605Z,9.37
2018-06-01T14:12:18.128Z,9.27
2018-06-01T14:14:45.721Z,7.90
2018-06-01T14:17:13.250Z,9.43
2018-06-01T14:19:40.843Z,5.57
2018-06-01T14:22:08.360Z,7.03
2018-06-01T14:24:35.929Z,8.33
2018-06-01T14:27:03.453Z,7.30
2018-06-01T14:29:30.987Z,8.67
2018-06-01T14:31:58.541Z,11.40
2018-06-01T14:34:26.070Z,8.57
2018-06-01T14:36:53.600Z,9.17
2018-06-01T14:39:21.121Z,9.90
2018-06-01T14:41:48.647Z,11.03
2018-06-01T14:44:16.238Z,9.17
2018-06-01T14:46:43.768Z,14.80
2018-06-01T14:49:11.283Z,11.97
2018-06-01T14:51:38.815Z,7.17
2018-06-01T14:54:06.345Z,21.47
2018-06-01T14:56:33.935Z,9.17
2018-06-01T14:59:01.465Z,11.47
2018-06-01T15:01:28.996Z,23.40
2018-06-01T15:03:56.548Z,15.00
2018-06-01T15:06:24.116Z,8.33
2018-06-01T15:08:51.681Z,12.53
2018-06-01T15:11:19.310Z,7.00
2018-06-01T15:13:46.882Z,12.97
2018-06-01T15:16:14.517Z,9.83
2018-06-01T15:18:42.049Z,12.23
2018-06-01T15:21:09.634Z,13.23
2018-06-01T15:23:37.195Z,12.00
2018-06-01T15:26:04.724Z,8.17
2018-06-01T15:28:32.285Z,7.67
2018-06-01T15:30:59.814Z,16.10
2018-06-01T15:33:27.348Z,11.03
2018-06-01T15:35:54.875Z,11.23
2018-06-01T15:38:22.392Z,8.83
2018-06-01T15:40:49.975Z,9.87
2018-06-01T15:43:17.468Z,8.57
2018-06-01T15:45:45.029Z,6.70
2018-06-01T15:48:12.558Z,11.37
2018-06-01T15:50:40.149Z,7.87
2018-06-01T15:53:07.681Z,10.77
2018-06-01T15:55:35.211Z,10.97
2018-06-01T15:58:02.830Z,8.13
2018-06-01T16:00:30.362Z,10.10
2018-06-01T16:02:57.947Z,7.80
2018-06-01T16:05:25.480Z,12.70
2018-06-01T16:07:53.068Z,10.80
2018-06-01T16:10:20.716Z,9.00
2018-06-01T16:12:48.259Z,11.53
2018-06-01T16:15:15.848Z,12.53
2018-06-01T16:17:43.371Z,9.63
2018-06-01T16:20:10.981Z,8.43
2018-06-01T16:22:38.498Z,9.33
2018-06-01T16:25:06.061Z,9.77
2018-06-01T16:27:34.303Z,9.63
2018-06-01T16:30:01.824Z,8.47
2018-06-01T16:32:29.382Z,10.13
2018-06-01T16:34:56.911Z,8.17
2018-06-01T16:37:24.506Z,10.13
2018-06-01T16:39:52.124Z,8.20
2018-06-01T16:42:19.618Z,9.00
2018-06-01T16:44:47.182Z,8.63
2018-06-01T16:47:14.714Z,11.03
2018-06-01T16:49:42.302Z,12.10
2018-06-01T16:52:09.836Z,14.13
2018-06-01T16:54:37.645Z,12.97
2018-06-01T16:57:05.188Z,10.23
2018-06-01T16:59:32.845Z,13.33
2018-06-01T17:02:00.413Z,15.20
2018-06-01T17:04:27.968Z,9.63
2018-06-01T17:06:55.501Z,14.73
2018-06-01T17:09:23.088Z,14.63
2018-06-01T17:11:50.768Z,12.80
2018-06-01T17:14:18.411Z,13.20
2018-06-01T17:16:45.975Z,12.53
2018-06-01T17:19:13.687Z,15.77
2018-06-01T17:21:41.224Z,13.47
2018-06-01T17:24:08.858Z,20.73
2018-06-01T17:26:36.392Z,20.60
2018-06-01T17:29:03.981Z,27.47
2018-06-01T17:31:31.510Z,22.47
2018-06-01T17:33:59.053Z,21.83
2018-06-01T17:36:26.597Z,15.40
2018-06-01T17:38:54.222Z,24.63
2018-06-01T17:41:21.782Z,21.50
2018-06-01T17:43:49.338Z,22.33
2018-06-01T17:46:16.897Z,25.40
2018-06-01T17:48:44.453Z,21.80
2018-06-01T17:51:11.988Z,25.57
2018-06-01T17:53:39.545Z,22.97
2018-06-01T17:56:07.106Z,19.60
2018-06-01T17:58:34.653Z,21.33
2018-06-01T18:01:02.205Z,17.77
2018-06-01T18:03:29.756Z,17.73
2018-06-01T18:05:57.343Z,19.20
2018-06-01T18:08:24.875Z,20.17
2018-06-01T18:10:52.433Z,19.30
2018-06-01T18:13:19.984Z,17.73
2018-06-01T18:15:47.520Z,17.23
2018-06-01T18:18:15.079Z,19.13
2018-06-01T18:20:42.637Z,18.00
2018-06-01T18:23:10.201Z,25.97
2018-06-01T18:25:37.753Z,21.57
2018-06-01T18:28:06.047Z,15.53
2018-06-01T18:30:33.589Z,18.53
2018-06-01T18:33:01.163Z,18.73
2018-06-01T18:35:28.711Z,17.50
2018-06-01T18:37:56.376Z,17.70
2018-06-01T18:40:23.936Z,18.03
2018-06-01T18:42:51.499Z,16.40
2018-06-01T18:45:19.058Z,17.70
2018-06-01T18:47:46.612Z,19.60
2018-06-01T18:50:14.168Z,18.87
2018-06-01T18:52:41.865Z,19.93
2018-06-01T18:55:09.411Z,19.70
2018-06-01T18:57:36.955Z,19.00
2018-06-01T19:00:04.553Z,20.23
2018-06-01T19:02:32.181Z,18.77
2018-06-01T19:04:59.723Z,28.30
2018-06-01T19:07:27.267Z,27.97
2018-06-01T19:09:55.057Z,21.10
2018-06-01T19:12:22.589Z,19.10
2018-06-01T19:14:50.124Z,19.97
2018-06-01T19:17:17.668Z,19.47
2018-06-01T19:19:45.199Z,19.27
2018-06-01T19:22:12.760Z,21.33
2018-06-01T19:24:40.355Z,18.50
2018-06-01T19:27:07.879Z,22.67
2018-06-01T19:29:35.439Z,20.67
2018-06-01T19:32:02.987Z,18.83
2018-06-01T19:34:30.565Z,19.23
2018-06-01T19:36:58.104Z,21.23
2018-06-01T19:39:25.646Z,21.10
2018-06-01T19:41:53.172Z,21.17
2018-06-01T19:44:20.903Z,18.67
2018-06-01T19:46:48.465Z,22.07
2018-06-01T19:49:16.014Z,18.83
2018-06-01T19:51:43.553Z,21.93
2018-06-01T19:54:11.143Z,24.07
2018-06-01T19:56:38.699Z,23.13
2018-06-01T19:59:06.261Z,20.00
2018-06-01T20:01:33.805Z,20.97
2018-06-01T20:04:01.347Z,22.10
2018-06-01T20:06:28.945Z,26.23
2018-06-01T20:08:56.604Z,20.67
2018-06-01T20:11:24.133Z,22.03
2018-06-01T20:13:51.670Z,22.87
2018-06-01T20:16:19.212Z,23.27
2018-06-01T20:18:46.844Z,21.07
2018-06-01T20:21:14.516Z,19.20
2018-06-01T20:23:42.272Z,20.90
2018-06-01T20:26:09.797Z,19.07
2018-06-01T20:28:37.408Z,16.87
2018-06-01T20:31:05.068Z,20.10
2018-06-01T20:33:32.644Z,15.37
2018-06-01T20:36:00.176Z,15.57
2018-06-01T20:38:27.716Z,15.20
2018-06-01T20:40:55.292Z,15.00
2018-06-01T20:43:22.854Z,15.77
2018-06-01T20:45:50.643Z,16.83
2018-06-01T20:48:18.172Z,16.73
2018-06-01T20:50:45.751Z,15.07
2018-06-01T20:53:13.404Z,14.83
2018-06-01T20:55:40.943Z,15.53
2018-06-01T20:58:08.493Z,16.37
2018-06-01T21:00:36.024Z,13.20
2018-06-01T21:03:03.676Z,12.97
2018-06-01T21:05:31.302Z,14.77
2018-06-01T21:07:58.824Z,16.83
2018-06-01T21:10:26.409Z,15.80
2018-06-01T21:12:53.938Z,16.23
2018-06-01T21:15:21.549Z,15.07
2018-06-01T21:17:49.089Z,17.83
2018-06-01T21:20:16.629Z,16.10
2018-06-01T21:22:44.160Z,15.10
2018-06-01T21:25:11.716Z,17.20
2018-06-01T21:27:39.347Z,17.07
2018-06-01T21:30:06.901Z,16.30
2018-06-01T21:32:34.448Z,17.07
2018-06-01T21:35:01.978Z,18.20
2018-06-01T21:37:29.585Z,18.53
2018-06-01T21:39:57.128Z,18.90
2018-06-01T21:42:24.733Z,20.40
2018-06-01T21:44:52.364Z,20.17
2018-06-01T21:47:19.908Z,21.33
2018-06-01T21:49:47.468Z,21.57
2018-06-01T21:52:15.008Z,23.50
2018-06-01T21:54:42.607Z,23.27
2018-06-01T21:57:10.251Z,24.53
2018-06-01T21:59:37.785Z,23.60
2018-06-01T22:02:05.317Z,23.53
2018-06-01T22:04:32.844Z,21.97
2018-06-01T22:07:00.379Z,20.07
2018-06-01T22:09:27.917Z,21.67
2018-06-01T22:11:55.524Z,23.53
2018-06-01T22:14:23.600Z,23.60
2018-06-01T22:16:51.191Z,22.50
2018-06-01T22:19:18.756Z,26.77
2018-06-01T22:21:46.291Z,25.07
2018-06-01T22:24:13.831Z,21.30
2018-06-01T22:26:41.360Z,23.83
2018-06-01T22:29:08.897Z,20.97
2018-06-01T22:31:36.480Z,23.83
2018-06-01T22:34:04.075Z,24.80
2018-06-01T22:36:31.620Z,23.43
2018-06-01T22:38:59.197Z,22.03
2018-06-01T22:41:26.739Z,23.33
2018-06-01T22:43:54.271Z,24.97
2018-06-01T22:46:21.807Z,24.80
2018-06-01T22:48:49.380Z,22.03
2018-06-01T22:51:16.921Z,23.83
2018-06-01T22:53:44.452Z,22.80
2018-06-01T22:56:11.996Z,23.13
2018-06-01T22:58:39.522Z,21.87
2018-06-01T23:01:07.099Z,21.50
2018-06-01T23:03:34.694Z,21.37
2018-06-01T23:06:02.219Z,22.20
2018-06-01T23:08:29.818Z,21.67
2018-06-01T23:10:57.340Z,20.17
2018-06-01T23:13:24.865Z,22.27
2018-06-01T23:15:52.391Z,23.83
2018-06-01T23:18:19.916Z,22.53
2018-06-01T23:20:47.452Z,22.33
2018-06-01T23:23:15.029Z,22.13
2018-06-01T23:25:42.560Z,20.97
2018-06-01T23:28:10.093Z,20.23
2018-06-01T23:30:37.615Z,21.30
2018-06-01T23:33:05.208Z,20.10
2018-06-01T23:35:32.741Z,23.87
2018-06-01T23:38:00.275Z,26.57
2018-06-01T23:40:27.889Z,30.57
2018-06-01T23:42:55.447Z,21.17
2018-06-01T23:45:22.975Z,22.97
2018-06-01T23:47:50.569Z,25.00
2018-06-01T23:50:18.131Z,23.00
2018-06-01T23:52:45.664Z,24.57
2018-06-01T23:55:13.249Z,24.07
2018-06-01T23:57:40.808Z,22.50
